Time;durP1;ratioP1;P1;durP2;ratioP2;P2;SDS_P1;SDS_P2;PMS_P1;PMS_P2;Temp;Humidity;BMP_temperature;BMP_pressure;BME280_temperature;BME280_humidity;BME280_pressure;Samples;Min_cycle;Max_cycle;Signal;HPM_P1;HPM_P2
2021/09/27 00:00:27;;;;;;;25.42;22.73;;;15.80;99.90;;;;;;5032245;28;20056;-67
2021/09/27 00:02:53;;;;;;;20.10;18.00;;;15.90;99.90;;;;;;5031854;28;20077;-68
2021/09/27 00:05:20;;;;;;;23.95;18.75;;;15.90;99.90;;;;;;5030444;28;20037;-67
2021/09/27 00:07:46;;;;;;;21.10;16.58;;;15.80;99.90;;;;;;5024730;28;20457;-67
2021/09/27 00:10:16;;;;;;;24.80;22.23;;;15.80;99.90;;;;;;5030620;28;20098;-67
2021/09/27 00:12:42;;;;;;;37.05;25.85;;;15.80;99.90;;;;;;5031532;28;20529;-67
2021/09/27 00:15:11;;;;;;;27.75;24.88;;;15.80;99.90;;;;;;5031887;28;20053;-67
2021/09/27 00:17:37;;;;;;;27.75;24.80;;;15.90;99.90;;;;;;5028581;28;20376;-67
2021/09/27 00:20:05;;;;;;;29.67;24.48;;;15.90;99.90;;;;;;5044963;28;20047;-67
2021/09/27 00:22:31;;;;;;;33.42;27.08;;;15.90;99.90;;;;;;5048148;28;20497;-67
2021/09/27 00:24:56;;;;;;;28.38;23.60;;;16.00;99.90;;;;;;5031495;28;20136;-67
2021/09/27 00:27:22;;;;;;;27.02;21.58;;;15.90;99.90;;;;;;5029394;28;20047;-67
2021/09/27 00:29:48;;;;;;;22.65;20.23;;;15.90;99.90;;;;;;5047152;28;20037;-67
2021/09/27 00:32:14;;;;;;;23.85;21.33;;;15.80;99.90;;;;;;5030931;28;20051;-67
2021/09/27 00:34:39;;;;;;;23.55;19.63;;;15.90;99.90;;;;;;5048935;28;20120;-67
2021/09/27 00:37:05;;;;;;;22.55;20.17;;;15.80;99.90;;;;;;5032593;28;20040;-67
2021/09/27 00:39:40;;;;;;;41.47;23.83;;;15.80;99.90;;;;;;5032501;28;20103;-67
2021/09/27 00:42:05;;;;;;;30.67;22.77;;;15.80;99.90;;;;;;5045524;28;20417;-67
2021/09/27 00:44:31;;;;;;;21.70;18.95;;;15.80;99.90;;;;;;5027545;28;20040;-67
2021/09/27 00:46:56;;;;;;;23.05;18.73;;;15.70;99.90;;;;;;5048789;28;20095;-67
2021/09/27 00:49:22;;;;;;;27.52;21.13;;;15.60;99.90;;;;;;5047752;28;20048;-68
2021/09/27 00:51:48;;;;;;;19.85;17.95;;;15.50;99.90;;;;;;5029457;28;20049;-67
2021/09/27 00:54:20;;;;;;;24.50;19.20;;;15.60;99.90;;;;;;5030122;28;20601;-67
2021/09/27 00:56:51;;;;;;;25.90;20.63;;;15.50;99.90;;;;;;5048637;28;20481;-67
2021/09/27 00:59:17;;;;;;;34.75;25.08;;;15.50;99.90;;;;;;5032109;28;20164;-67
2021/09/27 01:01:43;;;;;;;27.10;19.27;;;15.40;99.90;;;;;;5032894;28;20041;-67
2021/09/27 01:04:09;;;;;;;24.08;18.67;;;15.40;99.90;;;;;;5033846;28;20398;-67
2021/09/27 01:06:59;;;;;;;20.92;16.55;;;15.40;99.90;;;;;;5049497;28;20518;-67
2021/09/27 01:09:33;;;;;;;22.08;17.75;;;15.40;99.90;;;;;;5029272;28;20118;-67
2021/09/27 01:12:09;;;;;;;21.57;18.57;;;15.30;99.90;;;;;;5045973;28;20523;-67
2021/09/27 01:14:41;;;;;;;;;;;15.30;99.90;;;;;;5050085;28;20048;-67
2021/09/27 01:17:21;;;;;;;25.17;18.92;;;15.30;99.90;;;;;;5049079;28;19917;-67
2021/09/27 01:20:08;;;;;;;23.60;21.17;;;15.30;99.90;;;;;;5031337;28;20049;-67
2021/09/27 01:22:40;;;;;;;24.60;21.83;;;15.30;99.90;;;;;;5045865;28;20049;-67
2021/09/27 01:25:28;;;;;;;25.67;22.05;;;15.40;99.90;;;;;;5047668;28;20090;-67
2021/09/27 01:28:19;;;;;;;27.30;22.88;;;15.40;99.90;;;;;;5029540;28;20059;-67
2021/09/27 01:30:50;;;;;;;23.38;20.98;;;15.50;99.90;;;;;;5024216;28;20045;-67
2021/09/27 01:33:43;;;;;;;29.00;22.83;;;15.60;99.90;;;;;;5027832;28;20474;-67
2021/09/27 01:36:24;;;;;;;26.20;18.85;;;15.50;99.90;;;;;;5032391;28;20096;-67
2021/09/27 01:39:05;;;;;;;23.70;19.90;;;15.50;99.90;;;;;;5034747;28;20394;-67
2021/09/27 01:41:59;;;;;;;48.47;22.35;;;15.40;99.90;;;;;;5048214;28;20402;-67
2021/09/27 01:44:40;;;;;;;19.52;16.48;;;15.40;99.90;;;;;;5044778;28;20052;-67
2021/09/27 01:47:25;;;;;;;280.85;29.52;;;15.30;99.90;;;;;;5031308;28;20045;-67
2021/09/27 01:49:57;;;;;;;203.57;33.13;;;15.20;99.90;;;;;;5029586;28;20040;-67
2021/09/27 01:52:38;;;;;;;26.20;19.02;;;15.20;99.90;;;;;;5029716;28;20044;-67
2021/09/27 01:55:25;;;;;;;19.30;16.48;;;15.20;99.90;;;;;;5046031;28;20135;-67
2021/09/27 01:58:05;;;;;;;17.35;15.55;;;15.10;99.90;;;;;;5028980;28;20168;-67
2021/09/27 02:00:40;;;;;;;18.13;14.40;;;15.10;99.90;;;;;;5030521;28;20053;-67
2021/09/27 02:03:09;;;;;;;16.92;15.27;;;15.10;99.90;;;;;;5028755;28;20036;-67
2021/09/27 02:05:40;;;;;;;28.33;21.45;;;15.00;99.90;;;;;;5045829;28;20091;-67
2021/09/27 02:08:24;;;;;;;117.20;19.70;;;15.10;99.90;;;;;;5030008;28;20072;-67
2021/09/27 02:11:14;;;;;;;28.02;18.65;;;15.00;99.90;;;;;;5029017;28;20037;-66
2021/09/27 02:14:13;;;;;;;17.42;15.63;;;15.00;99.90;;;;;;5045870;28;20434;-67
2021/09/27 02:16:59;;;;;;;25.90;21.67;;;15.00;99.90;;;;;;5044581;28;20101;-67
2021/09/27 02:19:38;;;;;;;32.95;23.58;;;15.00;99.90;;;;;;5029444;28;20486;-67
2021/09/27 02:22:28;;;;;;;93.22;28.42;;;15.00;99.90;;;;;;5028403;28;20122;-67
2021/09/27 02:25:06;;;;;;;25.50;22.75;;;15.00;99.90;;;;;;5028542;28;20475;-67
2021/09/27 02:27:32;;;;;;;20.42;18.30;;;15.00;99.90;;;;;;5028352;28;20454;-67
2021/09/27 02:29:58;;;;;;;27.42;22.73;;;14.90;99.90;;;;;;5030624;28;20124;-67
2021/09/27 02:32:41;;;;;;;21.50;19.33;;;14.90;99.90;;;;;;5032024;28;20036;-67
2021/09/27 02:35:31;;;;;;;21.40;19.10;;;14.90;99.90;;;;;;5051797;28;20037;-67
2021/09/27 02:38:12;;;;;;;24.50;21.90;;;14.90;99.90;;;;;;5048203;28;20072;-67
2021/09/27 02:40:58;;;;;;;23.85;19.67;;;14.90;99.90;;;;;;5050351;28;20402;-67
2021/09/27 02:43:25;;;;;;;34.08;25.60;;;14.80;99.90;;;;;;5037870;28;20036;-67
2021/09/27 02:45:51;;;;;;;22.58;17.73;;;14.80;99.90;;;;;;5020662;28;20110;-67
2021/09/27 02:48:33;;;;;;;90.55;19.35;;;14.70;99.90;;;;;;5051172;28;20599;-67
2021/09/27 02:50:59;;;;;;;18.00;16.38;;;14.70;99.90;;;;;;5032292;28;21685;-67
2021/09/27 02:53:24;;;;;;;21.05;17.35;;;14.70;99.90;;;;;;5050083;28;20040;-67
2021/09/27 02:56:19;;;;;;;21.30;17.83;;;14.70;99.90;;;;;;5033293;28;20048;-67
2021/09/27 02:59:27;;;;;;;21.40;18.05;;;14.60;99.90;;;;;;5051542;28;20064;-67
2021/09/27 03:02:19;;;;;;;27.65;19.92;;;14.60;99.90;;;;;;5035840;28;20045;-67
2021/09/27 03:05:09;;;;;;;21.67;19.38;;;14.70;99.90;;;;;;5035553;28;20794;-67
2021/09/27 03:08:03;;;;;;;32.08;24.30;;;14.70;99.90;;;;;;5031126;28;20045;-67
2021/09/27 03:10:48;;;;;;;21.90;19.73;;;14.70;99.90;;;;;;5031848;28;20051;-67
2021/09/27 03:13:46;;;;;;;35.83;25.15;;;14.70;99.90;;;;;;5047423;28;20056;-67
2021/09/27 03:16:36;;;;;;;29.08;22.58;;;14.70;99.90;;;;;;5032697;28;20548;-67
2021/09/27 03:19:08;;;;;;;27.52;22.38;;;14.70;99.90;;;;;;5031420;28;20524;-67
2021/09/27 03:21:57;;;;;;;28.13;24.13;;;14.70;99.90;;;;;;5031610;28;20087;-67
2021/09/27 03:24:28;;;;;;;25.05;22.52;;;14.70;99.90;;;;;;5044354;28;20479;-67
2021/09/27 03:27:08;;;;;;;31.65;23.35;;;14.70;99.90;;;;;;5049426;28;20124;-67
2021/09/27 03:30:10;;;;;;;31.70;25.33;;;14.80;99.90;;;;;;5051066;28;20094;-67
2021/09/27 03:32:50;;;;;;;30.30;22.95;;;14.80;99.90;;;;;;5050863;28;20072;-67
2021/09/27 03:35:47;;;;;;;24.48;21.70;;;14.80;99.90;;;;;;5029547;28;20090;-67
2021/09/27 03:38:27;;;;;;;25.75;21.88;;;14.80;99.90;;;;;;5030609;28;20576;-67
2021/09/27 03:41:14;;;;;;;27.17;22.85;;;14.80;99.90;;;;;;5046103;28;20069;-67
2021/09/27 03:43:57;;;;;;;41.33;27.35;;;14.80;99.90;;;;;;5047836;28;20072;-67
2021/09/27 03:46:36;;;;;;;26.25;20.65;;;14.80;99.90;;;;;;5035307;28;20041;-67
2021/09/27 03:49:14;;;;;;;26.05;20.83;;;14.70;99.90;;;;;;5051686;28;20403;-67
2021/09/27 03:51:47;;;;;;;34.08;24.25;;;14.70;99.90;;;;;;5027346;28;20046;-67
2021/09/27 03:54:26;;;;;;;28.05;20.20;;;14.70;99.90;;;;;;5032444;28;20501;-67
2021/09/27 03:57:00;;;;;;;32.40;23.67;;;14.70;99.90;;;;;;5050029;28;20390;-67
2021/09/27 03:59:50;;;;;;;33.58;25.55;;;14.70;99.90;;;;;;5033273;28;20502;-67
2021/09/27 04:02:40;;;;;;;30.70;24.55;;;14.70;99.90;;;;;;5048867;28;20127;-67
2021/09/27 04:05:15;;;;;;;32.83;22.35;;;14.70;99.90;;;;;;5029724;28;20037;-67
2021/09/27 04:08:10;;;;;;;27.30;22.65;;;14.70;99.90;;;;;;5033193;28;20076;-67
2021/09/27 04:11:28;;;;;;;27.02;21.58;;;14.60;99.90;;;;;;5050572;28;20124;-67
2021/09/27 04:14:05;;;;;;;;;;;14.60;99.90;;;;;;5017545;28;20053;-67
2021/09/27 04:17:06;;;;;;;25.83;22.75;;;14.60;99.90;;;;;;5045916;28;19974;-67
2021/09/27 04:19:57;;;;;;;25.02;22.38;;;14.60;99.90;;;;;;5029758;28;20557;-67
2021/09/27 04:22:45;;;;;;;32.35;26.30;;;14.60;99.90;;;;;;5049719;28;20041;-67
2021/09/27 04:25:35;;;;;;;30.92;24.60;;;14.60;99.90;;;;;;5033781;28;20041;-67
2021/09/27 04:28:13;;;;;;;39.90;29.52;;;14.60;99.90;;;;;;5049356;28;20095;-67
2021/09/27 04:30:39;;;;;;;38.03;28.95;;;14.60;99.90;;;;;;5048581;28;20534;-67
2021/09/27 04:33:22;;;;;;;35.63;29.20;;;14.70;99.90;;;;;;5053226;28;20124;-67
2021/09/27 04:35:56;;;;;;;36.58;28.27;;;14.70;99.90;;;;;;5034582;28;20044;-67
2021/09/27 04:38:23;;;;;;;35.45;28.35;;;14.70;99.90;;;;;;5047667;28;20128;-67
2021/09/27 04:41:21;;;;;;;35.55;28.38;;;14.70;99.90;;;;;;5028806;28;20483;-67
2021/09/27 04:44:27;;;;;;;33.30;28.10;;;14.70;99.90;;;;;;5031884;28;20103;-67
2021/09/27 04:47:12;;;;;;;38.30;30.20;;;14.70;99.90;;;;;;5031429;28;20036;-67
2021/09/27 04:49:41;;;;;;;34.63;29.42;;;14.80;99.90;;;;;;5045919;28;20082;-67
2021/09/27 04:52:38;;;;;;;36.83;29.35;;;14.80;99.90;;;;;;5049497;28;20051;-67
2021/09/27 04:55:14;;;;;;;46.25;30.98;;;14.80;99.90;;;;;;5046372;28;20136;-67
2021/09/27 04:58:01;;;;;;;51.45;29.83;;;14.80;99.90;;;;;;5048209;28;20398;-67
2021/09/27 05:01:04;;;;;;;41.35;29.38;;;14.80;99.90;;;;;;5030138;28;20162;-67
2021/09/27 05:03:58;;;;;;;34.72;29.50;;;14.80;99.90;;;;;;5017146;28;20045;-67
2021/09/27 05:06:53;;;;;;;38.25;29.55;;;14.80;99.90;;;;;;5030264;28;20040;-67
2021/09/27 05:09:23;;;;;;;35.17;26.40;;;14.80;99.90;;;;;;5026959;28;20040;-67
2021/09/27 05:11:49;;;;;;;35.97;27.95;;;14.80;99.90;;;;;;5032021;28;20050;-67
2021/09/27 05:14:43;;;;;;;34.67;27.83;;;14.80;99.90;;;;;;5015006;28;20052;-67
2021/09/27 05:17:15;;;;;;;35.72;29.35;;;14.80;99.90;;;;;;4996411;28;20059;-67
2021/09/27 05:20:18;;;;;;;38.70;29.88;;;14.80;99.90;;;;;;5028257;28;20043;-68
2021/09/27 05:22:50;;;;;;;34.03;27.70;;;14.80;99.90;;;;;;5012685;28;20041;-68
2021/09/27 05:25:33;;;;;;;38.45;29.17;;;14.80;99.90;;;;;;5031638;28;20044;-67
2021/09/27 05:28:03;;;;;;;31.75;26.50;;;14.80;99.90;;;;;;5031386;28;20045;-67
2021/09/27 05:30:48;;;;;;;33.80;28.48;;;14.80;99.90;;;;;;5029090;28;20090;-67
2021/09/27 05:33:29;;;;;;;35.03;29.88;;;14.80;99.90;;;;;;5047936;28;20036;-67
2021/09/27 05:36:33;;;;;;;31.02;26.90;;;14.80;99.90;;;;;;5029842;28;20076;-67
2021/09/27 05:39:37;;;;;;;36.72;27.30;;;14.80;99.90;;;;;;5014033;28;20037;-67
2021/09/27 05:42:12;;;;;;;37.08;28.00;;;14.90;99.90;;;;;;5027569;28;20132;-67
2021/09/27 05:44:50;;;;;;;39.22;28.23;;;14.90;99.90;;;;;;5045167;28;20080;-67
2021/09/27 05:47:34;;;;;;;35.28;27.88;;;14.90;99.90;;;;;;5044512;28;20103;-68
2021/09/27 05:50:15;;;;;;;32.97;26.98;;;14.90;99.90;;;;;;5028659;28;20049;-67
2021/09/27 05:53:00;;;;;;;38.28;29.02;;;15.00;99.90;;;;;;5027846;28;20510;-67
2021/09/27 05:56:02;;;;;;;39.53;28.00;;;15.00;99.90;;;;;;5044325;28;20119;-67
2021/09/27 05:59:04;;;;;;;39.67;29.75;;;15.10;99.90;;;;;;5046539;28;20052;-68
2021/09/27 06:02:10;;;;;;;39.28;29.52;;;15.10;99.90;;;;;;4972843;28;20069;-67
2021/09/27 06:05:05;;;;;;;45.33;30.77;;;15.20;99.90;;;;;;5001520;28;20049;-67
2021/09/27 06:07:39;;;;;;;46.70;32.65;;;15.20;99.90;;;;;;5043548;28;20545;-67
2021/09/27 06:10:50;;;;;;;47.03;31.85;;;15.20;99.90;;;;;;5044638;28;20043;-67
2021/09/27 06:13:32;;;;;;;49.20;31.70;;;15.40;99.90;;;;;;5029139;28;20095;-67
2021/09/27 06:16:32;;;;;;;38.63;30.42;;;15.30;99.90;;;;;;5030445;28;20163;-67
2021/09/27 06:19:13;;;;;;;45.35;31.83;;;15.30;99.90;;;;;;5048158;28;20044;-67
2021/09/27 06:22:02;;;;;;;47.75;31.42;;;15.30;99.90;;;;;;5043899;28;20137;-68
2021/09/27 06:24:52;;;;;;;43.65;31.17;;;15.40;99.90;;;;;;5049911;28;20140;-67
2021/09/27 06:27:30;;;;;;;42.97;31.58;;;15.40;99.90;;;;;;5049932;28;20041;-68
2021/09/27 06:30:15;;;;;;;40.80;30.63;;;15.40;99.90;;;;;;5051118;28;20120;-68
2021/09/27 06:33:08;;;;;;;50.85;32.17;;;15.50;99.90;;;;;;5031417;28;20080;-68
2021/09/27 06:35:37;;;;;;;41.35;31.52;;;15.50;99.90;;;;;;5046956;28;20036;-68
2021/09/27 06:38:05;;;;;;;38.38;28.08;;;15.50;99.90;;;;;;5049466;28;20454;-68
2021/09/27 06:40:32;;;;;;;42.38;31.60;;;15.50;99.90;;;;;;5050548;28;20246;-68
2021/09/27 06:42:58;;;;;;;55.53;33.03;;;15.50;99.90;;;;;;5012069;28;20123;-67
2021/09/27 06:45:24;;;;;;;50.80;33.58;;;15.60;99.90;;;;;;5045458;28;20124;-67
2021/09/27 06:47:49;;;;;;;47.80;30.95;;;15.60;99.90;;;;;;5051383;28;20036;-67
2021/09/27 06:50:16;;;;;;;59.90;36.40;;;15.60;99.90;;;;;;5028072;28;20048;-67
2021/09/27 06:52:42;;;;;;;52.00;32.78;;;15.60;99.90;;;;;;5030988;28;20045;-67
2021/09/27 06:55:08;;;;;;;66.25;36.67;;;15.70;99.90;;;;;;5031670;28;20428;-67
2021/09/27 06:57:34;;;;;;;52.60;33.22;;;15.60;99.90;;;;;;5031630;28;20140;-68
2021/09/27 07:00:00;;;;;;;49.58;33.22;;;15.70;99.90;;;;;;5047468;28;20467;-68
2021/09/27 07:02:25;;;;;;;52.92;32.58;;;15.70;99.90;;;;;;5046967;28;20029;-68
2021/09/27 07:04:51;;;;;;;50.38;33.28;;;15.70;99.90;;;;;;5048230;28;20043;-68
2021/09/27 07:07:17;;;;;;;45.92;32.50;;;15.80;99.90;;;;;;5033389;28;20566;-68
2021/09/27 07:09:44;;;;;;;42.38;29.95;;;15.80;99.90;;;;;;5049255;28;20091;-67
2021/09/27 07:12:11;;;;;;;44.08;29.85;;;15.80;99.90;;;;;;5048500;28;20048;-67
2021/09/27 07:14:37;;;;;;;45.50;31.13;;;15.80;99.90;;;;;;5030269;28;20107;-67
2021/09/27 07:17:03;;;;;;;42.28;29.02;;;15.90;99.90;;;;;;5030591;28;20072;-68
2021/09/27 07:19:28;;;;;;;39.10;27.90;;;15.90;99.90;;;;;;5047914;28;20447;-68
2021/09/27 07:21:54;;;;;;;39.28;29.00;;;15.90;99.90;;;;;;5048909;28;20045;-68
2021/09/27 07:24:22;;;;;;;44.63;29.88;;;16.00;99.90;;;;;;5032279;28;20180;-68
2021/09/27 07:26:47;;;;;;;41.58;29.67;;;16.00;99.90;;;;;;5046933;28;20048;-68
2021/09/27 07:29:13;;;;;;;38.97;28.70;;;16.00;99.90;;;;;;5032057;28;20041;-68
2021/09/27 07:31:38;;;;;;;36.05;27.65;;;16.10;99.90;;;;;;5031039;28;20053;-67
2021/09/27 07:34:06;;;;;;;36.97;27.60;;;16.00;99.90;;;;;;5048895;28;20068;-67
2021/09/27 07:36:31;;;;;;;40.17;28.58;;;16.00;99.90;;;;;;5045011;28;20086;-67
2021/09/27 07:38:57;;;;;;;31.50;26.40;;;16.10;99.90;;;;;;5050421;28;20064;-68
2021/09/27 07:41:24;;;;;;;33.42;26.35;;;16.10;99.90;;;;;;5032188;28;20056;-67
2021/09/27 07:43:49;;;;;;;39.92;28.33;;;16.20;99.90;;;;;;5044718;28;20060;-67
2021/09/27 07:46:18;;;;;;;36.03;28.13;;;16.20;99.90;;;;;;5047630;28;20068;-67
2021/09/27 07:48:45;;;;;;;36.30;26.95;;;16.30;99.90;;;;;;5029691;28;20049;-68
2021/09/27 07:51:10;;;;;;;31.00;26.80;;;16.30;99.90;;;;;;5028313;28;20053;-68
2021/09/27 07:53:37;;;;;;;33.40;27.15;;;16.30;99.90;;;;;;5013380;28;20041;-68
2021/09/27 07:56:02;;;;;;;34.45;27.00;;;16.30;99.90;;;;;;5045934;28;20482;-67
2021/09/27 07:58:28;;;;;;;29.23;24.88;;;16.40;99.90;;;;;;5046886;28;20033;-67
2021/09/27 08:00:54;;;;;;;26.60;23.73;;;16.50;99.90;;;;;;5047155;28;20057;-67
2021/09/27 08:03:21;;;;;;;28.58;24.75;;;16.60;99.90;;;;;;5030645;28;20032;-67
2021/09/27 08:05:47;;;;;;;28.30;24.55;;;16.60;99.90;;;;;;5027275;28;20041;-68
2021/09/27 08:08:13;;;;;;;25.98;23.25;;;16.60;99.90;;;;;;5042813;28;20483;-68
2021/09/27 08:10:40;;;;;;;29.73;24.30;;;16.70;99.90;;;;;;5024478;28;20037;-68
2021/09/27 08:13:07;;;;;;;26.15;23.15;;;16.80;99.90;;;;;;5039613;28;20043;-68
2021/09/27 08:15:36;;;;;;;27.73;23.42;;;16.90;99.90;;;;;;5023547;28;20051;-68
2021/09/27 08:18:05;;;;;;;23.88;21.48;;;17.00;99.90;;;;;;5025448;28;20132;-68
2021/09/27 08:20:35;;;;;;;23.90;21.35;;;17.10;99.90;;;;;;5022047;28;20060;-68
2021/09/27 08:23:01;;;;;;;23.23;20.77;;;17.30;99.90;;;;;;5024451;28;20057;-68
2021/09/27 08:25:27;;;;;;;24.38;20.65;;;17.40;99.90;;;;;;5040849;28;20045;-67
2021/09/27 08:27:53;;;;;;;24.40;21.80;;;17.60;99.90;;;;;;5007199;28;20049;-69
2021/09/27 08:30:24;;;;;;;21.83;19.52;;;17.70;99.90;;;;;;5040135;28;20093;-68
2021/09/27 08:32:50;;;;;;;22.67;20.25;;;17.70;99.90;;;;;;5040249;28;20111;-68
2021/09/27 08:35:16;;;;;;;21.60;19.50;;;17.90;99.90;;;;;;5040128;28;20116;-68
2021/09/27 08:37:43;;;;;;;22.98;18.90;;;17.90;99.90;;;;;;5041144;28;20115;-68
2021/09/27 08:40:29;;;;;;;20.67;18.38;;;18.00;99.90;;;;;;5041349;28;20036;-68
2021/09/27 08:42:55;;;;;;;19.42;17.25;;;18.10;99.90;;;;;;5011590;28;20076;-68
2021/09/27 08:45:27;;;;;;;19.75;16.92;;;18.20;99.90;;;;;;5040753;28;20452;-68
2021/09/27 08:48:29;;;;;;;17.95;16.20;;;18.30;99.90;;;;;;5024426;28;20083;-68
2021/09/27 08:50:55;;;;;;;18.80;16.88;;;18.40;99.90;;;;;;5045357;28;20049;-69
2021/09/27 08:53:32;;;;;;;17.92;15.82;;;18.50;99.90;;;;;;5029182;28;20568;-68
2021/09/27 08:56:16;;;;;;;18.58;16.63;;;18.60;99.90;;;;;;5045042;28;20057;-68
2021/09/27 08:58:49;;;;;;;17.33;15.45;;;18.70;99.90;;;;;;5026579;28;20053;-68
2021/09/27 09:01:20;;;;;;;17.95;16.25;;;18.60;99.90;;;;;;5023575;28;20043;-68
2021/09/27 09:03:56;;;;;;;17.05;15.27;;;18.60;99.90;;;;;;5024623;28;20148;-68
2021/09/27 09:06:36;;;;;;;18.52;16.65;;;18.60;99.90;;;;;;5040656;28;20120;-68
2021/09/27 09:09:06;;;;;;;17.67;15.93;;;18.60;99.90;;;;;;5021655;28;20168;-68
2021/09/27 09:11:42;;;;;;;17.63;15.75;;;18.70;99.90;;;;;;5039242;28;20846;-68
2021/09/27 09:14:33;;;;;;;16.23;14.73;;;18.70;99.90;;;;;;5022326;28;20049;-68
2021/09/27 09:17:11;;;;;;;18.40;15.70;;;18.80;99.90;;;;;;5022325;28;20041;-68
2021/09/27 09:19:37;;;;;;;19.15;14.23;;;18.90;99.90;;;;;;5038782;28;20045;-68
2021/09/27 09:22:20;;;;;;;16.23;14.63;;;18.90;99.90;;;;;;5038636;28;20041;-68
2021/09/27 09:24:46;;;;;;;15.45;13.88;;;19.00;99.90;;;;;;5040184;28;20033;-68
2021/09/27 09:27:13;;;;;;;15.43;13.93;;;19.00;99.90;;;;;;5023767;28;20068;-68
2021/09/27 09:29:41;;;;;;;16.17;14.65;;;19.10;99.90;;;;;;5036936;28;20047;-68
2021/09/27 09:32:17;;;;;;;14.57;13.25;;;19.20;99.90;;;;;;5041009;28;20036;-68
2021/09/27 09:34:44;;;;;;;17.42;15.43;;;19.30;99.90;;;;;;5023475;28;20044;-68
2021/09/27 09:37:32;;;;;;;15.02;13.57;;;19.40;99.90;;;;;;5040072;28;20056;-68
2021/09/27 09:40:01;;;;;;;13.88;12.52;;;19.50;99.90;;;;;;5038319;28;20056;-68
2021/09/27 09:42:33;;;;;;;15.35;12.68;;;19.60;99.90;;;;;;5041994;28;20044;-68
2021/09/27 09:45:17;;;;;;;14.25;12.75;;;19.70;99.90;;;;;;5022364;28;20047;-68
2021/09/27 09:47:44;;;;;;;13.45;12.18;;;19.90;99.90;;;;;;5038570;28;20041;-68
2021/09/27 09:50:29;;;;;;;12.32;11.02;;;19.90;99.90;;;;;;5040402;28;20065;-68
2021/09/27 09:52:58;;;;;;;13.68;11.00;;;20.00;99.90;;;;;;5040599;28;20045;-68
2021/09/27 09:55:42;;;;;;;12.32;11.02;;;20.00;99.90;;;;;;5037365;28;20053;-68
2021/09/27 09:58:12;;;;;;;12.13;10.45;;;20.00;99.90;;;;;;5025250;28;20080;-68
2021/09/27 10:00:51;;;;;;;11.48;10.48;;;20.10;99.90;;;;;;5021587;28;20037;-68
2021/09/27 10:03:32;;;;;;;12.30;11.13;;;20.00;99.90;;;;;;5026068;28;20120;-68
2021/09/27 10:06:08;;;;;;;13.38;12.07;;;20.10;99.90;;;;;;5026652;28;20045;-68
2021/09/27 10:08:35;;;;;;;;;;;20.00;99.90;;;;;;5028392;28;20037;-68
2021/09/27 10:11:12;;;;;;;11.65;10.55;;;20.00;99.90;;;;;;5043938;28;19924;-68
2021/09/27 10:13:43;;;;;;;11.82;9.93;;;20.00;99.90;;;;;;5041514;28;20041;-68
2021/09/27 10:16:33;;;;;;;10.65;9.65;;;20.10;99.90;;;;;;5026640;28;20045;-68
2021/09/27 10:19:28;;;;;;;11.85;10.50;;;20.10;99.90;;;;;;5043389;28;20791;-68
2021/09/27 10:22:21;;;;;;;11.40;10.13;;;20.20;99.90;;;;;;5026878;28;20041;-68
2021/09/27 10:24:51;;;;;;;10.68;9.30;;;20.40;99.90;;;;;;5042989;28;20036;-68
2021/09/27 10:27:41;;;;;;;10.40;9.32;;;20.70;99.90;;;;;;5026480;28;20433;-68
2021/09/27 10:30:20;;;;;;;10.60;9.60;;;21.10;99.90;;;;;;5042906;28;20033;-67
2021/09/27 10:33:01;;;;;;;12.10;9.13;;;21.30;99.90;;;;;;5010003;28;20049;-68
2021/09/27 10:35:41;;;;;;;9.95;8.98;;;21.30;99.90;;;;;;5028353;28;20048;-67
2021/09/27 10:38:15;;;;;;;10.15;9.15;;;21.20;99.90;;;;;;5025530;28;20049;-67
2021/09/27 10:40:44;;;;;;;9.52;8.63;;;21.20;99.90;;;;;;5041312;28;20562;-67
2021/09/27 10:43:19;;;;;;;9.40;8.38;;;21.20;99.90;;;;;;5024197;28;21379;-67
2021/09/27 10:45:50;;;;;;;11.60;7.85;;;21.20;99.90;;;;;;5041853;28;20045;-67
2021/09/27 10:48:17;;;;;;;8.73;7.00;;;21.20;99.90;;;;;;5026115;28;20992;-67
2021/09/27 10:50:51;;;;;;;8.40;7.60;;;21.30;99.90;;;;;;5042636;28;20049;-67
2021/09/27 10:53:38;;;;;;;6.65;6.05;;;21.30;99.90;;;;;;5043043;28;20502;-68
2021/09/27 10:56:14;;;;;;;12.98;6.78;;;21.30;99.90;;;;;;5040819;28;20112;-68
2021/09/27 10:58:44;;;;;;;;;;;21.30;99.90;;;;;;5026537;28;20475;-68
2021/09/27 11:01:29;;;;;;;14.18;7.22;;;21.20;99.90;;;;;;5042591;28;20000;-67
2021/09/27 11:03:57;;;;;;;8.38;7.00;;;21.20;99.90;;;;;;5026734;28;20045;-67
2021/09/27 11:06:36;;;;;;;13.88;6.60;;;21.10;99.90;;;;;;5024304;28;20040;-67
2021/09/27 11:09:30;;;;;;;9.02;7.22;;;21.00;99.90;;;;;;5043386;28;20032;-68
2021/09/27 11:12:01;;;;;;;7.10;6.20;;;21.10;99.90;;;;;;5038721;28;20777;-67
2021/09/27 11:14:41;;;;;;;6.57;5.97;;;21.20;99.90;;;;;;5024293;28;20057;-67
2021/09/27 11:17:06;;;;;;;6.88;6.18;;;21.30;99.90;;;;;;5043509;28;20045;-67
2021/09/27 11:19:32;;;;;;;7.82;7.07;;;21.40;99.90;;;;;;5041279;28;20114;-67
2021/09/27 11:22:13;;;;;;;6.80;6.20;;;21.40;99.90;;;;;;5023417;28;20046;-68
2021/09/27 11:24:44;;;;;;;6.88;6.20;;;21.40;99.90;;;;;;5040524;28;20144;-67
2021/09/27 11:27:16;;;;;;;6.35;5.75;;;21.20;99.90;;;;;;5025181;28;20044;-67
2021/09/27 11:29:58;;;;;;;7.03;5.65;;;21.10;99.90;;;;;;5025537;28;20049;-68
2021/09/27 11:32:29;;;;;;;10.20;6.43;;;21.00;99.90;;;;;;5042662;28;20039;-67
2021/09/27 11:35:03;;;;;;;7.95;5.95;;;20.90;99.90;;;;;;5043810;28;20501;-67
2021/09/27 11:37:33;;;;;;;7.55;6.05;;;20.90;99.90;;;;;;5030341;28;20041;-67
2021/09/27 11:40:11;;;;;;;8.07;5.78;;;20.90;99.90;;;;;;5046844;28;20103;-67
2021/09/27 11:42:53;;;;;;;5.95;5.28;;;21.10;99.90;;;;;;5040810;28;20581;-67
2021/09/27 11:45:44;;;;;;;7.90;5.85;;;21.10;99.90;;;;;;5042292;28;20596;-67
2021/09/27 11:48:40;;;;;;;8.15;6.18;;;21.30;99.90;;;;;;5042928;28;20068;-67
2021/09/27 11:51:06;;;;;;;7.40;6.07;;;21.40;99.90;;;;;;5018574;28;20483;-67
2021/09/27 11:53:34;;;;;;;6.97;6.25;;;21.40;99.90;;;;;;5041799;28;20051;-67
2021/09/27 11:56:09;;;;;;;7.78;5.85;;;21.30;99.90;;;;;;5041064;28;20052;-67
2021/09/27 11:58:48;;;;;;;10.05;6.40;;;21.20;99.90;;;;;;5025179;28;20060;-67
2021/09/27 12:01:38;;;;;;;10.48;6.38;;;21.10;99.90;;;;;;5042283;28;21095;-67
2021/09/27 12:04:06;;;;;;;11.68;6.78;;;21.00;99.90;;;;;;5040386;28;20047;-67
2021/09/27 12:06:36;;;;;;;10.35;6.53;;;21.00;99.90;;;;;;5025591;28;20544;-67
2021/09/27 12:09:15;;;;;;;7.47;5.97;;;21.00;99.90;;;;;;5040455;28;20037;-67
2021/09/27 12:11:54;;;;;;;9.73;6.97;;;20.90;99.90;;;;;;5023529;28;20087;-67
2021/09/27 12:14:34;;;;;;;8.75;6.80;;;20.90;99.90;;;;;;5023776;28;20046;-67
2021/09/27 12:17:04;;;;;;;11.32;6.45;;;20.80;99.90;;;;;;5024879;28;20048;-67
2021/09/27 12:19:35;;;;;;;9.48;5.75;;;20.80;99.90;;;;;;5024062;28;20045;-67
2021/09/27 12:22:06;;;;;;;6.32;5.70;;;20.80;99.90;;;;;;5025820;28;20136;-67
2021/09/27 12:24:41;;;;;;;8.38;6.32;;;20.90;99.90;;;;;;5025738;28;20088;-67
2021/09/27 12:27:12;;;;;;;12.55;7.68;;;20.80;99.90;;;;;;5023993;28;20044;-67
2021/09/27 12:29:57;;;;;;;9.13;6.90;;;20.80;99.90;;;;;;5041374;28;20072;-67
2021/09/27 12:32:28;;;;;;;9.77;7.10;;;20.80;99.90;;;;;;5024952;28;20041;-67
2021/09/27 12:34:56;;;;;;;8.13;7.18;;;20.70;99.90;;;;;;5024179;28;20443;-67
2021/09/27 12:37:23;;;;;;;11.77;6.88;;;20.70;99.90;;;;;;5024310;28;20041;-67
2021/09/27 12:39:50;;;;;;;10.95;6.72;;;20.70;99.90;;;;;;5040623;28;20067;-67
2021/09/27 12:42:18;;;;;;;10.95;7.05;;;20.70;99.90;;;;;;5040706;28;20052;-67
2021/09/27 12:44:48;;;;;;;7.75;5.60;;;20.60;99.90;;;;;;5022737;28;20407;-67
2021/09/27 12:47:14;;;;;;;12.30;6.47;;;20.60;99.90;;;;;;5043001;28;20433;-67
2021/09/27 12:49:51;;;;;;;7.63;5.70;;;20.50;99.90;;;;;;5040695;28;20152;-67
2021/09/27 12:52:37;;;;;;;7.18;5.95;;;20.50;99.90;;;;;;5021105;28;20045;-67
2021/09/27 12:55:05;;;;;;;;;;;20.40;99.90;;;;;;5040265;28;20094;-67
2021/09/27 12:57:55;;;;;;;7.65;4.97;;;20.40;99.90;;;;;;5040980;28;20386;-67
2021/09/27 13:00:42;;;;;;;5.43;4.95;;;20.40;99.90;;;;;;5023885;28;20510;-67
2021/09/27 13:03:17;;;;;;;6.57;4.93;;;20.40;99.90;;;;;;5023606;28;20056;-67
2021/09/27 13:06:06;;;;;;;7.07;5.13;;;20.40;99.90;;;;;;5023102;28;20047;-67
2021/09/27 13:08:50;;;;;;;7.75;5.05;;;20.30;99.90;;;;;;5041208;28;20048;-67
2021/09/27 13:11:38;;;;;;;8.57;5.45;;;20.30;99.90;;;;;;5023017;28;20046;-67
2021/09/27 13:14:20;;;;;;;12.45;5.45;;;20.30;99.90;;;;;;5023525;28;20037;-68
2021/09/27 13:16:49;;;;;;;6.63;4.68;;;20.40;99.90;;;;;;5025087;28;20060;-67
2021/09/27 13:19:35;;;;;;;5.15;4.60;;;20.30;99.90;;;;;;5040333;28;20060;-67
2021/09/27 13:22:02;;;;;;;8.60;4.50;;;20.30;99.90;;;;;;5023187;28;20080;-67